Flugplatz Falkenberg-Lönnewitz

Für EDUF sind keine METAR/TAF Berichte vorhanden.
Es werden die Flugwettermeldungen vom Flugplatz Holzdorf Airport in 24 km Entfernung angezeigt.

Bericht für ETSH

vom 31.05. um 03:20 UTC

Wind 4 kt aus 340°

Sichtweite 10 km oder mehr

aufgelockert bewölkt in 12000 ft

aufgebrochene Bewölkung in 14000 ft

bedeckt in 21000 ft

Temperatur 9.0°C

Taupunkt 5.0°C

Luftfeuchtigkeit 76%

Luftdruck 1021 hPa

ETSH 310320Z 34004KT 9999 SCT120 BKN140 OVC210 09/05 Q1021 BLU
Keine Prognose (TAF) verfügbar.
Impressum